createdAt,value
2019-02-24T00:00:45.145Z,99228.52
2019-02-24T00:03:17.165Z,99216.69
2019-02-24T00:05:48.766Z,99198.55
2019-02-24T00:08:20.475Z,99207.32
2019-02-24T00:10:52.062Z,99207.32
2019-02-24T00:13:24.431Z,99223.78
2019-02-24T00:15:55.896Z,99224.75
2019-02-24T00:18:27.283Z,99231.19
2019-02-24T00:20:58.952Z,99240.06
2019-02-24T00:23:30.493Z,99260.81
2019-02-24T00:26:02.504Z,99260.81
2019-02-24T00:28:34.444Z,99248.27
2019-02-24T00:31:05.926Z,99237.84
2019-02-24T00:33:37.365Z,99245.52
2019-02-24T00:36:08.972Z,99228.53
2019-02-24T00:38:40.408Z,99224.37
2019-02-24T00:41:12.200Z,99240.81
2019-02-24T00:43:44.002Z,99240.81
2019-02-24T00:46:15.487Z,99263.30
2019-02-24T00:48:47.233Z,99278.44
2019-02-24T00:51:18.596Z,99278.44
2019-02-24T00:53:50.349Z,99286.05
2019-02-24T00:56:21.873Z,99247.20
2019-02-24T00:58:53.535Z,99247.20
2019-02-24T01:01:24.935Z,99231.61
2019-02-24T01:03:56.432Z,99231.61
2019-02-24T01:06:28.279Z,99237.59
2019-02-24T01:08:59.996Z,99254.91
2019-02-24T01:11:31.495Z,99254.82
2019-02-24T01:14:03.163Z,99254.82
2019-02-24T01:16:35.035Z,99251.34
2019-02-24T01:19:06.735Z,99251.88
2019-02-24T01:21:38.051Z,99244.22
2019-02-24T01:24:09.742Z,99244.22
2019-02-24T01:26:41.299Z,99250.24
2019-02-24T01:29:12.894Z,99250.58
2019-02-24T01:31:44.483Z,99238.20
2019-02-24T01:34:15.958Z,99238.20
2019-02-24T01:36:47.634Z,99257.42
2019-02-24T01:39:19.294Z,99262.92
2019-02-24T01:41:50.674Z,99272.64
2019-02-24T01:44:22.069Z,99272.64
2019-02-24T01:46:53.794Z,99279.00
2019-02-24T01:49:25.339Z,99279.00
2019-02-24T01:51:57.035Z,99296.52
2019-02-24T01:54:28.605Z,99295.87
2019-02-24T01:56:59.949Z,99275.70
2019-02-24T01:59:31.508Z,99307.72
2019-02-24T02:02:03.149Z,99307.72
2019-02-24T02:04:34.710Z,99469.41
2019-02-24T02:07:06.081Z,99457.95
2019-02-24T02:09:37.545Z,99423.58
2019-02-24T02:12:10.970Z,99423.58
2019-02-24T02:14:42.715Z,99471.38
2019-02-24T02:17:14.221Z,99471.38
2019-02-24T02:19:45.829Z,99482.53
2019-02-24T02:22:17.477Z,99501.31
2019-02-24T02:24:49.196Z,99525.77
2019-02-24T02:27:20.655Z,99525.77
2019-02-24T02:29:52.600Z,99546.92
2019-02-24T02:32:24.424Z,99546.92
2019-02-24T02:34:56.899Z,99554.67
2019-02-24T02:37:28.435Z,99578.25
2019-02-24T02:39:59.975Z,99591.67
2019-02-24T02:42:31.310Z,99604.41
2019-02-24T02:45:02.855Z,99577.23
2019-02-24T02:47:34.684Z,99545.63
2019-02-24T02:50:06.959Z,99547.19
2019-02-24T02:52:38.766Z,99530.06
2019-02-24T02:55:10.587Z,99532.69
2019-02-24T02:57:42.115Z,99531.62
2019-02-24T03:00:37.516Z,99543.75
2019-02-24T03:03:08.822Z,99543.75
2019-02-24T03:05:42.141Z,99517.98
2019-02-24T03:08:15.651Z,99522.21
2019-02-24T03:10:47.146Z,99536.13
2019-02-24T03:13:18.873Z,99536.13
2019-02-24T03:15:50.468Z,99541.30
2019-02-24T03:18:22.071Z,99566.48
2019-02-24T03:20:54.250Z,99568.84
2019-02-24T03:23:25.670Z,99568.84
2019-02-24T03:25:57.710Z,99547.85
2019-02-24T03:28:29.344Z,99513.74
2019-02-24T03:31:01.133Z,99488.48
2019-02-24T03:33:32.673Z,99485.65
2019-02-24T03:36:04.323Z,99480.89
2019-02-24T03:38:35.868Z,99490.09
2019-02-24T03:41:07.822Z,99452.04
2019-02-24T03:43:40.500Z,99462.44
2019-02-24T03:46:12.040Z,99492.54
2019-02-24T03:48:43.585Z,99504.47
2019-02-24T03:51:16.463Z,99483.13
2019-02-24T03:53:48.314Z,99480.28
2019-02-24T03:56:19.773Z,99480.28
2019-02-24T03:58:51.786Z,99485.94
2019-02-24T04:01:23.453Z,99485.94
2019-02-24T04:03:55.079Z,99492.69
2019-02-24T04:06:26.658Z,99537.17
2019-02-24T04:08:58.175Z,99537.17
2019-02-24T04:11:29.464Z,99590.23
2019-02-24T04:14:01.040Z,99641.77
2019-02-24T04:16:32.590Z,99641.77
2019-02-24T04:19:04.429Z,99671.59
2019-02-24T04:21:36.605Z,99675.94
2019-02-24T04:24:08.274Z,99689.48
2019-02-24T04:26:39.846Z,99684.08
2019-02-24T04:29:11.500Z,99675.36
2019-02-24T04:31:43.048Z,99659.76
2019-02-24T04:34:14.766Z,99626.32
2019-02-24T04:36:46.192Z,99626.32
2019-02-24T04:39:17.568Z,99588.60
2019-02-24T04:41:49.323Z,99575.77
2019-02-24T04:44:21.060Z,99563.73
2019-02-24T04:46:53.075Z,99556.23
2019-02-24T04:49:24.589Z,99525.38
2019-02-24T04:51:56.223Z,99530.16
2019-02-24T04:54:27.935Z,99530.16
2019-02-24T04:56:59.748Z,99543.63
2019-02-24T04:59:35.053Z,99535.70
2019-02-24T05:02:04.342Z,99541.87
2019-02-24T05:04:36.035Z,99508.64
2019-02-24T05:07:07.543Z,99508.64
2019-02-24T05:09:39.303Z,99486.40
2019-02-24T05:12:10.783Z,99491.79
2019-02-24T05:14:42.492Z,99511.54
2019-02-24T05:17:13.845Z,99528.00
2019-02-24T05:19:45.377Z,99499.02
2019-02-24T05:22:17.153Z,99499.02
2019-02-24T05:24:48.805Z,99517.67
2019-02-24T05:27:20.432Z,99549.31
2019-02-24T05:29:52.097Z,99549.31
2019-02-24T05:32:24.108Z,99561.30
2019-02-24T05:34:55.924Z,99554.73
2019-02-24T05:37:27.545Z,99554.73
2019-02-24T05:39:59.173Z,99532.88
2019-02-24T05:42:30.720Z,99533.70
2019-02-24T05:45:02.335Z,99533.70
2019-02-24T05:47:34.914Z,99545.21
2019-02-24T05:50:06.367Z,99524.27
2019-02-24T05:52:37.891Z,99519.26
2019-02-24T05:55:09.516Z,99519.26
2019-02-24T05:57:41.165Z,99511.31
2019-02-24T06:00:13.998Z,99514.02
2019-02-24T06:02:45.798Z,99514.02
2019-02-24T06:05:17.414Z,99503.92
2019-02-24T06:07:48.762Z,99496.63
2019-02-24T06:10:20.436Z,99496.63
2019-02-24T06:12:51.963Z,99467.00
2019-02-24T06:15:24.600Z,99461.03
2019-02-24T06:17:56.317Z,99449.12
2019-02-24T06:20:27.878Z,99449.12
2019-02-24T06:22:59.482Z,99442.96
2019-02-24T06:25:31.429Z,99445.66
2019-02-24T06:28:03.013Z,99443.70
2019-02-24T06:30:34.603Z,99438.80
2019-02-24T06:33:06.504Z,99434.25
2019-02-24T06:35:37.936Z,99434.25
2019-02-24T06:38:09.600Z,99425.69
2019-02-24T06:40:40.983Z,99427.64
2019-02-24T06:43:12.703Z,99418.94
2019-02-24T06:45:45.983Z,99406.85
2019-02-24T06:48:17.625Z,99411.88
2019-02-24T06:50:55.418Z,99391.28
2019-02-24T06:53:26.918Z,99391.28
2019-02-24T06:55:58.298Z,99368.16
2019-02-24T06:58:29.846Z,99366.75
2019-02-24T07:01:01.357Z,99366.75
2019-02-24T07:03:33.399Z,99358.96
2019-02-24T07:06:05.025Z,99347.92
2019-02-24T07:08:36.595Z,99351.09
2019-02-24T07:11:09.441Z,99350.93
2019-02-24T07:13:40.898Z,99333.20
2019-02-24T07:16:12.498Z,99322.58
2019-02-24T07:18:44.234Z,99312.85
2019-02-24T07:21:15.921Z,99297.67
2019-02-24T07:23:47.780Z,99297.67
2019-02-24T07:26:19.694Z,99299.06
2019-02-24T07:28:52.221Z,99301.58
2019-02-24T07:31:24.127Z,99307.89
2019-02-24T07:33:56.655Z,99307.89
2019-02-24T07:36:28.239Z,99312.51
2019-02-24T07:39:00.074Z,99308.41
2019-02-24T07:41:31.596Z,99290.59
2019-02-24T07:44:03.502Z,99289.52
2019-02-24T07:46:35.376Z,99283.16
2019-02-24T07:49:07.188Z,99289.05
2019-02-24T07:51:38.795Z,99284.52
2019-02-24T07:54:10.431Z,99284.52
2019-02-24T07:56:42.138Z,99288.23
2019-02-24T07:59:13.957Z,99288.23
2019-02-24T08:01:45.987Z,99286.48
2019-02-24T08:04:18.035Z,99286.48
2019-02-24T08:06:49.411Z,99273.80
2019-02-24T08:09:21.078Z,99259.33
2019-02-24T08:11:52.439Z,99259.33
2019-02-24T08:14:24.011Z,99252.98
2019-02-24T08:16:55.651Z,99252.98
2019-02-24T08:19:27.364Z,99232.92
2019-02-24T08:21:59.251Z,99222.17
2019-02-24T08:24:31.696Z,99222.17
2019-02-24T08:27:03.386Z,99231.19
2019-02-24T08:29:35.015Z,99226.39
2019-02-24T08:32:06.590Z,99222.12
2019-02-24T08:34:38.625Z,99216.63
2019-02-24T08:37:11.439Z,99210.59
2019-02-24T08:39:43.272Z,99213.22
2019-02-24T08:42:15.081Z,99202.53
2019-02-24T08:44:46.856Z,99194.37
2019-02-24T08:47:18.673Z,99187.94
2019-02-24T08:49:50.220Z,99187.94
2019-02-24T08:52:22.174Z,99195.57
2019-02-24T08:54:53.750Z,99188.34
2019-02-24T08:57:25.376Z,99188.34
2019-02-24T08:59:56.892Z,99185.43
2019-02-24T09:02:28.230Z,99185.02
2019-02-24T09:04:59.659Z,99185.02
2019-02-24T09:07:31.367Z,99177.27
2019-02-24T09:10:03.833Z,99177.27
2019-02-24T09:12:35.489Z,99175.28
2019-02-24T09:15:07.211Z,99178.08
2019-02-24T09:17:39.136Z,99176.58
2019-02-24T09:20:11.186Z,99164.76
2019-02-24T09:22:43.010Z,99166.47
2019-02-24T09:25:14.307Z,99163.45
2019-02-24T09:27:46.024Z,99163.31
2019-02-24T09:30:17.509Z,99163.31
2019-02-24T09:32:49.227Z,99165.36
2019-02-24T09:35:20.899Z,99170.25
2019-02-24T09:37:52.812Z,99160.23
2019-02-24T09:40:24.436Z,99157.58
2019-02-24T09:42:55.990Z,99152.08
2019-02-24T09:45:27.536Z,99153.77
2019-02-24T09:47:59.179Z,99150.33
2019-02-24T09:50:30.771Z,99139.86
2019-02-24T09:53:07.231Z,99146.72
2019-02-24T09:55:38.995Z,99142.77
2019-02-24T09:58:10.507Z,99142.20
2019-02-24T10:00:42.294Z,99138.53
2019-02-24T10:03:14.229Z,99138.53
2019-02-24T10:05:46.048Z,99131.34
2019-02-24T10:08:17.540Z,99124.00
2019-02-24T10:10:50.272Z,99124.00
2019-02-24T10:13:31.941Z,99124.23
2019-02-24T10:16:03.606Z,99124.23
2019-02-24T10:18:35.114Z,99127.81
2019-02-24T10:21:07.780Z,99125.02
2019-02-24T10:23:39.279Z,99122.55
2019-02-24T10:26:11.201Z,99112.23
2019-02-24T10:28:42.790Z,99112.23
2019-02-24T10:31:19.819Z,99111.02
2019-02-24T10:33:49.599Z,99104.31
2019-02-24T10:36:21.313Z,99102.76
2019-02-24T10:38:53.066Z,99093.90
2019-02-24T10:41:24.604Z,99093.90
2019-02-24T10:43:56.328Z,99089.14
2019-02-24T10:46:27.703Z,99091.23
2019-02-24T10:49:03.396Z,99094.84
2019-02-24T10:51:32.914Z,99097.84
2019-02-24T10:54:04.755Z,99102.46
2019-02-24T10:56:36.376Z,99098.65
2019-02-24T10:59:08.374Z,99098.28
2019-02-24T11:01:40.039Z,99098.28
2019-02-24T11:04:11.803Z,99101.52
2019-02-24T11:06:43.634Z,99107.48
2019-02-24T11:09:15.261Z,99108.79
2019-02-24T11:11:46.985Z,99106.30
2019-02-24T11:14:18.599Z,99110.08
2019-02-24T11:16:50.292Z,99110.08
2019-02-24T11:19:21.955Z,99111.80
2019-02-24T11:21:53.863Z,99110.85
2019-02-24T11:24:25.780Z,99108.45
2019-02-24T11:26:57.272Z,99111.19
2019-02-24T11:29:28.914Z,99109.98
2019-02-24T11:32:00.561Z,99108.02
2019-02-24T11:34:31.942Z,99108.56
2019-02-24T11:37:03.748Z,99115.58
2019-02-24T11:39:35.459Z,99129.16
2019-02-24T11:42:07.218Z,99129.16
2019-02-24T11:44:38.904Z,99121.81
2019-02-24T11:47:10.556Z,99111.33
2019-02-24T11:49:42.246Z,99105.39
2019-02-24T11:52:13.845Z,99098.11
2019-02-24T11:54:45.411Z,99098.92
2019-02-24T11:57:16.826Z,99098.92
2019-02-24T11:59:48.364Z,99106.67
2019-02-24T12:02:19.759Z,99111.26
2019-02-24T12:04:51.469Z,99109.09
2019-02-24T12:07:23.259Z,99109.09
2019-02-24T12:09:55.119Z,99102.66
2019-02-24T12:12:26.796Z,99102.66
2019-02-24T12:14:58.417Z,99103.50
2019-02-24T12:17:30.015Z,99109.89
2019-02-24T12:20:02.048Z,99119.27
2019-02-24T12:22:34.767Z,99119.27
2019-02-24T12:25:07.116Z,99117.48
2019-02-24T12:27:38.746Z,99111.95
2019-02-24T12:30:11.327Z,99110.84
2019-02-24T12:32:43.034Z,99119.89
2019-02-24T12:35:14.872Z,99116.32
2019-02-24T12:37:46.553Z,99118.45
2019-02-24T12:40:18.474Z,99121.61
2019-02-24T12:42:59.804Z,99121.61
2019-02-24T12:45:37.540Z,99126.14
2019-02-24T12:48:10.273Z,99135.86
2019-02-24T12:50:42.127Z,99131.73
2019-02-24T12:53:13.981Z,99130.22
2019-02-24T12:55:45.632Z,99130.22
2019-02-24T12:58:17.757Z,99130.69
2019-02-24T13:00:52.814Z,99139.05
2019-02-24T13:03:25.393Z,99139.05
2019-02-24T13:05:57.235Z,99149.27
2019-02-24T13:08:28.827Z,99148.80
2019-02-24T13:11:00.465Z,99155.45
2019-02-24T13:13:32.979Z,99153.58
2019-02-24T13:16:04.523Z,99153.77
2019-02-24T13:18:36.854Z,99162.19
2019-02-24T13:21:08.808Z,99167.47
2019-02-24T13:23:40.479Z,99163.43
2019-02-24T13:26:12.571Z,99166.43
2019-02-24T13:28:50.459Z,99166.24
2019-02-24T13:31:18.229Z,99167.27
2019-02-24T13:33:49.986Z,99170.09
2019-02-24T13:36:21.665Z,99173.23
2019-02-24T13:38:53.211Z,99175.30
2019-02-24T13:41:24.917Z,99173.45
2019-02-24T13:43:56.711Z,99174.61
2019-02-24T13:46:28.543Z,99174.61
2019-02-24T13:49:00.333Z,99180.33
2019-02-24T13:51:31.902Z,99182.81
2019-02-24T13:54:03.368Z,99188.64
2019-02-24T13:56:34.933Z,99188.64
2019-02-24T13:59:06.680Z,99198.41
2019-02-24T14:01:38.354Z,99200.03
2019-02-24T14:04:09.728Z,99199.27
2019-02-24T14:06:41.361Z,99198.98
2019-02-24T14:09:13.493Z,99208.37
2019-02-24T14:11:44.996Z,99208.37
2019-02-24T14:14:16.664Z,99203.86
2019-02-24T14:16:48.250Z,99203.13
2019-02-24T14:19:20.186Z,99207.78
2019-02-24T14:21:51.845Z,99209.48
2019-02-24T14:24:23.658Z,99221.83
2019-02-24T14:26:55.368Z,99221.83
2019-02-24T14:29:28.287Z,99229.88
2019-02-24T14:31:59.915Z,99230.81
2019-02-24T14:34:31.606Z,99230.81
2019-02-24T14:37:03.286Z,99233.27
2019-02-24T14:39:34.892Z,99247.09
2019-02-24T14:42:06.654Z,99247.09
2019-02-24T14:44:38.192Z,99260.45
2019-02-24T14:47:09.765Z,99260.45
2019-02-24T14:49:41.198Z,99256.94
2019-02-24T14:52:12.685Z,99264.50
2019-02-24T14:54:44.375Z,99269.39
2019-02-24T14:57:15.909Z,99269.39
2019-02-24T14:59:47.629Z,99269.78
2019-02-24T15:02:19.011Z,99266.91
2019-02-24T15:04:51.740Z,99266.91
2019-02-24T15:07:23.295Z,99271.11
2019-02-24T15:09:55.031Z,99284.28
2019-02-24T15:12:28.151Z,99281.84
2019-02-24T15:14:59.906Z,99284.18
2019-02-24T15:17:31.667Z,99281.84
2019-02-24T15:20:03.377Z,99281.84
2019-02-24T15:22:34.998Z,99289.07
2019-02-24T15:25:07.475Z,99283.39
2019-02-24T15:27:39.512Z,99298.14
2019-02-24T15:30:14.329Z,99301.69
2019-02-24T15:32:51.572Z,99301.69
2019-02-24T15:35:19.152Z,99300.58
2019-02-24T15:37:50.914Z,99297.77
2019-02-24T15:40:23.706Z,99300.23
2019-02-24T15:42:55.360Z,99306.34
2019-02-24T15:45:27.027Z,99306.34
2019-02-24T15:47:58.735Z,99306.66
2019-02-24T15:50:30.236Z,99307.34
2019-02-24T15:53:01.878Z,99307.34
2019-02-24T15:55:33.334Z,99317.94
2019-02-24T15:58:04.938Z,99314.78
2019-02-24T16:00:36.662Z,99321.41
2019-02-24T16:03:08.196Z,99328.48
2019-02-24T16:05:39.809Z,99324.20
2019-02-24T16:08:11.137Z,99324.20
2019-02-24T16:10:43.011Z,99322.41
2019-02-24T16:13:17.002Z,99325.88
2019-02-24T16:15:47.981Z,99331.70
2019-02-24T16:18:20.564Z,99331.70
2019-02-24T16:20:52.175Z,99333.15
2019-02-24T16:23:24.932Z,99326.61
2019-02-24T16:25:56.345Z,99320.30
2019-02-24T16:28:27.954Z,99319.38
2019-02-24T16:30:59.560Z,99319.38
2019-02-24T16:33:31.118Z,99313.97
2019-02-24T16:36:02.827Z,99309.74
2019-02-24T16:38:34.222Z,99314.89
2019-02-24T16:41:06.084Z,99314.89
2019-02-24T16:43:38.000Z,99306.25
2019-02-24T16:46:09.956Z,99306.25
2019-02-24T16:48:41.623Z,99309.66
2019-02-24T16:51:13.161Z,99305.53
2019-02-24T16:53:44.680Z,99304.56
2019-02-24T16:56:16.442Z,99304.25
2019-02-24T16:58:48.081Z,99304.25
2019-02-24T17:01:19.805Z,99308.48
2019-02-24T17:03:51.582Z,99297.81
2019-02-24T17:06:23.437Z,99297.81
2019-02-24T17:09:01.261Z,99302.60
2019-02-24T17:11:28.556Z,99299.88
2019-02-24T17:14:00.070Z,99302.09
2019-02-24T17:16:31.756Z,99304.73
2019-02-24T17:19:03.195Z,99295.91
2019-02-24T17:21:34.718Z,99295.31
2019-02-24T17:24:06.272Z,99289.48
2019-02-24T17:26:37.708Z,99289.48
2019-02-24T17:29:10.190Z,99291.34
2019-02-24T17:31:41.812Z,99295.90
2019-02-24T17:34:13.565Z,99295.05
2019-02-24T17:36:45.309Z,99298.80
2019-02-24T17:39:17.025Z,99300.22
2019-02-24T17:41:49.078Z,99284.42
2019-02-24T17:44:20.919Z,99285.78
2019-02-24T17:46:52.680Z,99285.78
2019-02-24T17:49:24.444Z,99284.67
2019-02-24T17:51:56.201Z,99279.97
2019-02-24T17:54:28.026Z,99279.97
2019-02-24T17:56:59.588Z,99276.66
2019-02-24T17:59:39.991Z,99280.19
2019-02-24T18:02:05.004Z,99282.92
2019-02-24T18:04:36.905Z,99275.73
2019-02-24T18:07:08.527Z,99275.73
2019-02-24T18:09:40.408Z,99269.52
2019-02-24T18:12:12.414Z,99273.23
2019-02-24T18:14:44.041Z,99268.00
2019-02-24T18:17:15.574Z,99268.00
2019-02-24T18:19:47.208Z,99262.47
2019-02-24T18:22:18.537Z,99264.20
2019-02-24T18:24:50.207Z,99265.81
2019-02-24T18:27:23.715Z,99254.97
2019-02-24T18:29:54.895Z,99262.14
2019-02-24T18:32:26.521Z,99253.22
2019-02-24T18:34:58.213Z,99254.13
2019-02-24T18:37:29.906Z,99254.13
2019-02-24T18:40:01.351Z,99247.25
2019-02-24T18:42:33.569Z,99240.30
2019-02-24T18:45:05.064Z,99240.30
2019-02-24T18:47:36.667Z,99247.68
2019-02-24T18:50:09.021Z,99251.63
2019-02-24T18:52:40.663Z,99241.82
2019-02-24T18:55:12.354Z,99235.93
2019-02-24T18:57:44.052Z,99237.02
2019-02-24T19:00:16.585Z,99240.00
2019-02-24T19:02:48.811Z,99233.24
2019-02-24T19:05:20.321Z,99233.24
2019-02-24T19:07:52.384Z,99235.62
2019-02-24T19:10:24.186Z,99220.12
2019-02-24T19:12:55.974Z,99223.11
2019-02-24T19:15:27.699Z,99223.11
2019-02-24T19:17:59.223Z,99222.35
2019-02-24T19:20:30.670Z,99222.35
2019-02-24T19:23:02.420Z,99222.05
2019-02-24T19:25:33.810Z,99220.28
2019-02-24T19:28:06.738Z,99220.28
2019-02-24T19:30:38.595Z,99215.13
2019-02-24T19:33:09.974Z,99215.59
2019-02-24T19:35:41.539Z,99215.20
2019-02-24T19:38:13.311Z,99213.06
2019-02-24T19:40:44.595Z,99212.59
2019-02-24T19:43:16.420Z,99213.45
2019-02-24T19:45:47.764Z,99209.61
2019-02-24T19:48:19.395Z,99207.08
2019-02-24T19:50:51.056Z,99207.08
2019-02-24T19:53:22.643Z,99204.85
2019-02-24T19:55:54.516Z,99202.00
2019-02-24T19:58:26.128Z,99202.00
2019-02-24T20:00:57.567Z,99203.39
2019-02-24T20:03:29.412Z,99200.63
2019-02-24T20:06:01.071Z,99200.63
2019-02-24T20:08:32.699Z,99192.73
2019-02-24T20:11:04.712Z,99192.73
2019-02-24T20:13:36.553Z,99196.70
2019-02-24T20:16:08.173Z,99196.61
2019-02-24T20:18:39.626Z,99191.47
2019-02-24T20:21:11.962Z,99190.45
2019-02-24T20:23:43.517Z,99193.23
2019-02-24T20:26:15.203Z,99184.49
2019-02-24T20:28:46.833Z,99184.49
2019-02-24T20:31:18.693Z,99186.10
2019-02-24T20:33:51.385Z,99177.98
2019-02-24T20:36:23.059Z,99179.97
2019-02-24T20:38:54.658Z,99179.97
2019-02-24T20:41:26.670Z,99188.45
2019-02-24T20:43:58.270Z,99188.45
2019-02-24T20:46:30.086Z,99175.29
2019-02-24T20:49:01.461Z,99176.97
2019-02-24T20:51:33.284Z,99176.88
2019-02-24T20:54:05.849Z,99177.32
2019-02-24T20:56:37.628Z,99177.32
2019-02-24T20:59:09.078Z,99170.19
2019-02-24T21:01:40.615Z,99168.27
2019-02-24T21:04:12.541Z,99165.95
2019-02-24T21:06:44.317Z,99162.37
2019-02-24T21:09:15.816Z,99153.16
2019-02-24T21:11:47.932Z,99153.16
2019-02-24T21:14:19.595Z,99158.88
2019-02-24T21:16:51.200Z,99157.02
2019-02-24T21:19:22.697Z,99150.88
2019-02-24T21:21:54.149Z,99151.48
2019-02-24T21:24:25.763Z,99148.81
2019-02-24T21:26:57.573Z,99146.34
2019-02-24T21:29:28.937Z,99147.94
2019-02-24T21:32:00.537Z,99143.87
2019-02-24T21:34:32.204Z,99145.86
2019-02-24T21:37:04.090Z,99145.86
2019-02-24T21:39:35.661Z,99148.63
2019-02-24T21:42:07.735Z,99141.95
2019-02-24T21:44:39.277Z,99141.95
2019-02-24T21:47:11.825Z,99147.41
2019-02-24T21:49:43.454Z,99146.02
2019-02-24T21:52:15.092Z,99145.69
2019-02-24T21:54:46.652Z,99139.27
2019-02-24T21:57:18.247Z,99139.95
2019-02-24T21:59:49.607Z,99143.34
2019-02-24T22:02:21.421Z,99141.91
2019-02-24T22:04:53.126Z,99141.91
2019-02-24T22:07:25.733Z,99144.75
2019-02-24T22:09:57.245Z,99147.68
2019-02-24T22:12:29.205Z,99153.43
2019-02-24T22:15:00.592Z,99146.42
2019-02-24T22:17:32.076Z,99145.53
2019-02-24T22:20:03.758Z,99145.53
2019-02-24T22:22:35.489Z,99146.83
2019-02-24T22:25:07.533Z,99149.33
2019-02-24T22:27:39.227Z,99151.12
2019-02-24T22:30:13.017Z,99153.57
2019-02-24T22:32:44.763Z,99147.64
2019-02-24T22:35:17.637Z,99150.33
2019-02-24T22:37:49.460Z,99150.33
2019-02-24T22:40:20.790Z,99148.93
2019-02-24T22:42:53.047Z,99150.17
2019-02-24T22:45:25.045Z,99148.02
2019-02-24T22:47:56.995Z,99154.76
2019-02-24T22:50:28.782Z,99154.76
2019-02-24T22:53:00.515Z,99127.65
2019-02-24T22:55:32.747Z,99155.16
2019-02-24T22:58:04.313Z,99150.09
2019-02-24T23:01:10.155Z,99143.59
2019-02-24T23:03:45.355Z,99159.00
2019-02-24T23:06:16.765Z,99159.00
2019-02-24T23:08:48.604Z,99163.78
2019-02-24T23:11:20.115Z,99163.78
2019-02-24T23:13:52.008Z,99160.94
2019-02-24T23:16:23.675Z,99156.19
2019-02-24T23:18:55.160Z,99158.84
2019-02-24T23:21:26.970Z,99163.08
2019-02-24T23:23:58.436Z,99163.08
2019-02-24T23:26:30.164Z,99162.75
2019-02-24T23:29:02.050Z,99170.64
2019-02-24T23:31:33.733Z,99171.42
2019-02-24T23:34:05.259Z,99175.12
2019-02-24T23:36:37.104Z,99173.23
2019-02-24T23:39:14.724Z,99173.23
2019-02-24T23:41:47.046Z,99182.41
2019-02-24T23:44:18.580Z,99183.17
2019-02-24T23:46:50.606Z,99196.01
2019-02-24T23:49:22.288Z,99199.18
2019-02-24T23:51:53.827Z,99199.18
2019-02-24T23:54:25.437Z,99206.45
2019-02-24T23:56:57.337Z,99210.38
2019-02-24T23:59:28.707Z,99210.38
